Time;durP1;ratioP1;P1;durP2;ratioP2;P2;SDS_P1;SDS_P2;PMS_P1;PMS_P2;Temp;Humidity;BMP_temperature;BMP_pressure;BME280_temperature;BME280_humidity;BME280_pressure;Samples;Min_cycle;Max_cycle;Signal;HPM_P1;HPM_P2
2024/02/01 00:00:21;;;;;;;16.17;6.37;;;7.50;99.90;;;;;;8442075;28;20047;-75
2024/02/01 00:04:23;;;;;;;13.25;5.63;;;7.50;99.90;;;;;;8426783;28;20051;-75
2024/02/01 00:08:24;;;;;;;8.07;4.72;;;7.60;99.90;;;;;;8462772;28;20445;-75
2024/02/01 00:12:26;;;;;;;9.73;5.60;;;7.60;99.90;;;;;;8458283;28;20047;-75
2024/02/01 00:16:28;;;;;;;9.35;4.53;;;7.60;99.90;;;;;;8434537;28;20047;-75
2024/02/01 00:20:30;;;;;;;8.85;4.78;;;7.60;99.90;;;;;;8437971;28;20047;-75
2024/02/01 00:24:31;;;;;;;10.00;4.88;;;7.70;99.90;;;;;;8451775;28;20051;-75
2024/02/01 00:29:14;;;;;;;8.77;5.35;;;7.70;99.90;;;;;;8413184;28;20507;-75
2024/02/01 00:33:16;;;;;;;11.75;5.00;;;7.70;99.90;;;;;;8443130;28;20086;-75
2024/02/01 00:37:18;;;;;;;12.85;5.88;;;7.80;99.90;;;;;;8452506;28;20048;-75
2024/02/01 00:41:20;;;;;;;11.27;4.93;;;7.80;99.90;;;;;;8430405;28;20036;-75
2024/02/01 00:45:22;;;;;;;8.85;4.75;;;7.90;99.90;;;;;;8433961;28;20136;-75
2024/02/01 00:49:24;;;;;;;10.25;5.63;;;7.90;99.90;;;;;;8450897;28;20052;-75
2024/02/01 00:53:27;;;;;;;10.82;6.10;;;8.00;99.90;;;;;;8436840;28;20047;-75
2024/02/01 00:57:29;;;;;;;8.95;5.43;;;8.10;99.90;;;;;;8450883;28;20058;-75
2024/02/01 01:01:30;;;;;;;9.48;4.82;;;8.10;99.90;;;;;;8456570;28;20104;-75
2024/02/01 01:05:33;;;;;;;7.70;4.15;;;8.10;99.90;;;;;;8440308;28;20736;-75
2024/02/01 01:09:35;;;;;;;7.93;4.32;;;8.20;99.90;;;;;;8445192;27;20085;-75
2024/02/01 01:13:36;;;;;;;9.75;4.65;;;8.20;99.90;;;;;;8468469;27;20048;-74
2024/02/01 01:17:38;;;;;;;8.32;4.32;;;8.30;99.90;;;;;;8457525;27;20548;-74
2024/02/01 01:21:40;;;;;;;9.30;5.25;;;8.30;99.90;;;;;;8454172;27;20040;-74
2024/02/01 01:25:42;;;;;;;7.10;3.60;;;8.30;99.90;;;;;;8458052;27;20066;-74
2024/02/01 01:29:44;;;;;;;7.85;4.25;;;8.40;99.90;;;;;;8449648;27;20484;-75
2024/02/01 01:33:46;;;;;;;8.82;4.25;;;8.40;99.90;;;;;;8462600;27;20055;-75
2024/02/01 01:37:48;;;;;;;8.55;4.20;;;8.50;99.90;;;;;;8462031;27;20104;-75
2024/02/01 01:41:50;;;;;;;7.70;4.10;;;8.60;99.90;;;;;;8462341;27;20047;-74
2024/02/01 01:46:02;;;;;;;6.93;4.00;;;8.70;99.90;;;;;;8459524;27;20042;-75
2024/02/01 01:50:06;;;;;;;8.32;3.60;;;8.80;99.90;;;;;;8432200;27;20419;-75
2024/02/01 01:54:09;;;;;;;9.35;3.55;;;8.90;99.90;;;;;;8456306;27;20064;-74
2024/02/01 01:58:11;;;;;;;12.98;4.40;;;9.00;99.90;;;;;;8441383;27;20526;-74
2024/02/01 02:02:13;;;;;;;7.75;3.38;;;9.00;99.90;;;;;;8455183;27;20041;-75
2024/02/01 02:06:15;;;;;;;9.68;4.30;;;9.00;99.90;;;;;;8444471;27;20068;-74
2024/02/01 02:10:17;;;;;;;7.97;3.10;;;9.00;99.90;;;;;;8466179;27;20047;-74
2024/02/01 02:14:19;;;;;;;8.43;3.00;;;9.10;99.90;;;;;;8459999;28;20051;-74
2024/02/01 02:18:21;;;;;;;7.72;2.90;;;9.10;99.90;;;;;;8459842;28;20486;-74
2024/02/01 02:22:25;;;;;;;10.32;3.47;;;9.10;99.90;;;;;;8466207;27;20036;-74
2024/02/01 02:26:27;;;;;;;12.90;3.60;;;9.10;99.90;;;;;;8433101;28;20560;-74
2024/02/01 02:30:30;;;;;;;10.00;3.22;;;9.10;99.90;;;;;;8457182;27;20113;-75
2024/02/01 02:34:31;;;;;;;10.68;3.65;;;9.00;99.90;;;;;;8440251;28;20085;-74
2024/02/01 02:38:33;;;;;;;8.95;3.17;;;9.00;99.90;;;;;;8458357;27;20047;-74
2024/02/01 02:42:35;;;;;;;11.00;3.80;;;9.00;99.90;;;;;;8463478;27;20055;-74
2024/02/01 02:47:32;;;;;;;7.18;3.53;;;9.00;99.90;;;;;;8459903;28;20054;-75
2024/02/01 02:51:35;;;;;;;12.85;3.83;;;9.00;99.90;;;;;;8471309;27;20639;-74
2024/02/01 02:55:37;;;;;;;15.52;4.47;;;9.00;99.90;;;;;;8455563;27;20048;-74
2024/02/01 02:59:38;;;;;;;12.50;3.70;;;8.90;99.90;;;;;;8458606;27;20137;-74
2024/02/01 03:03:40;;;;;;;10.88;2.92;;;8.90;99.90;;;;;;8441315;28;20047;-75
2024/02/01 03:07:46;;;;;;;9.52;2.88;;;8.90;99.90;;;;;;8467811;27;20050;-74
2024/02/01 03:11:48;;;;;;;10.57;2.63;;;8.70;99.90;;;;;;8455984;27;20047;-74
2024/02/01 03:16:28;;;;;;;11.35;3.35;;;8.60;99.90;;;;;;8444218;28;20059;-74
2024/02/01 03:20:32;;;;;;;9.18;3.22;;;8.50;99.90;;;;;;8448408;28;20043;-74
2024/02/01 03:24:34;;;;;;;12.38;3.00;;;8.40;99.90;;;;;;8437276;27;20059;-74
2024/02/01 03:28:40;;;;;;;8.68;2.30;;;8.30;99.90;;;;;;8430371;28;20465;-74
2024/02/01 03:32:42;;;;;;;8.07;2.35;;;8.20;99.90;;;;;;8447079;27;20462;-75
2024/02/01 03:36:44;;;;;;;9.68;2.50;;;8.20;99.90;;;;;;8434947;28;20058;-74
2024/02/01 03:40:46;;;;;;;6.15;1.77;;;8.00;99.90;;;;;;8455722;28;20047;-74
2024/02/01 03:44:48;;;;;;;8.38;1.83;;;7.90;99.90;;;;;;8460931;27;20059;-74
2024/02/01 03:48:49;;;;;;;6.45;1.75;;;7.70;99.90;;;;;;8437366;27;20502;-74
2024/02/01 03:52:51;;;;;;;5.63;1.55;;;7.60;99.90;;;;;;8460518;27;20087;-74
2024/02/01 03:56:54;;;;;;;6.45;1.55;;;7.50;99.90;;;;;;8459254;28;20061;-74
2024/02/01 04:00:56;;;;;;;8.32;1.55;;;7.40;99.90;;;;;;8455663;27;20039;-74
2024/02/01 04:04:59;;;;;;;8.90;1.55;;;7.30;99.90;;;;;;8450535;27;20491;-74
2024/02/01 04:09:00;;;;;;;8.00;1.58;;;7.30;99.90;;;;;;8448360;28;20043;-74
2024/02/01 04:13:05;;;;;;;10.15;1.65;;;7.20;99.90;;;;;;8450319;28;20044;-74
2024/02/01 04:18:04;;;;;;;10.13;1.15;;;7.10;99.90;;;;;;8429711;28;20052;-75
2024/02/01 04:22:06;;;;;;;10.63;1.80;;;7.00;99.90;;;;;;8445272;28;20406;-74
2024/02/01 04:26:08;;;;;;;7.57;1.70;;;6.90;99.90;;;;;;8447911;28;20071;-74
2024/02/01 04:30:10;;;;;;;7.00;1.60;;;6.70;99.90;;;;;;8455255;28;20047;-74
2024/02/01 04:34:12;;;;;;;5.28;1.40;;;6.60;99.90;;;;;;8451425;28;20474;-74
2024/02/01 04:38:17;;;;;;;9.98;1.98;;;6.60;99.90;;;;;;8442112;28;20130;-74
2024/02/01 04:42:23;;;;;;;11.57;1.80;;;6.50;99.90;;;;;;8457607;27;20043;-74
2024/02/01 04:46:25;;;;;;;8.70;1.70;;;6.50;99.90;;;;;;8428357;28;20047;-74
2024/02/01 04:50:27;;;;;;;7.35;1.63;;;6.40;99.90;;;;;;8441380;27;20101;-74
2024/02/01 04:54:28;;;;;;;6.53;1.70;;;6.30;99.90;;;;;;8450289;27;20528;-73
2024/02/01 04:58:30;;;;;;;10.32;1.73;;;6.30;99.90;;;;;;8463108;27;20047;-73
2024/02/01 05:02:32;;;;;;;8.07;2.50;;;6.20;99.90;;;;;;8456631;27;20039;-73
2024/02/01 05:06:34;;;;;;;7.22;1.80;;;6.10;99.90;;;;;;8452680;28;20123;-73
2024/02/01 05:10:37;;;;;;;8.55;1.60;;;6.10;99.90;;;;;;8459505;28;20051;-73
2024/02/01 05:14:39;;;;;;;11.50;2.22;;;6.00;99.90;;;;;;8437195;28;20470;-74
2024/02/01 05:18:42;;;;;;;6.32;1.60;;;5.90;99.90;;;;;;8451416;28;20052;-73
2024/02/01 05:22:45;;;;;;;7.30;1.77;;;5.80;99.90;;;;;;8459202;28;20044;-73
2024/02/01 05:26:50;;;;;;;9.38;2.17;;;5.80;99.90;;;;;;8434408;28;20101;-73
2024/02/01 05:30:52;;;;;;;9.13;1.90;;;5.70;99.90;;;;;;8456348;28;20048;-73
2024/02/01 05:35:29;;;;;;;7.95;1.60;;;5.70;99.90;;;;;;8460878;28;20047;-73
2024/02/01 05:39:30;;;;;;;8.75;1.70;;;5.60;99.90;;;;;;8447917;28;20050;-73
2024/02/01 05:43:32;;;;;;;5.40;1.70;;;5.60;99.90;;;;;;8454783;27;20407;-73
2024/02/01 05:47:34;;;;;;;5.60;1.55;;;5.50;99.90;;;;;;8461574;28;20069;-73
2024/02/01 05:51:36;;;;;;;6.63;1.88;;;5.50;99.90;;;;;;8456600;28;20048;-73
2024/02/01 05:55:38;;;;;;;11.80;1.38;;;5.30;99.90;;;;;;8445734;28;20048;-73
2024/02/01 05:59:40;;;;;;;6.30;1.00;;;5.20;99.90;;;;;;8459585;28;20085;-73
2024/02/01 06:03:42;;;;;;;8.75;1.63;;;5.20;99.90;;;;;;8445743;28;20047;-73
2024/02/01 06:07:44;;;;;;;10.15;1.70;;;5.10;99.90;;;;;;8457208;28;20089;-73
2024/02/01 06:11:50;;;;;;;5.72;1.30;;;5.00;99.90;;;;;;8446991;28;20043;-73
2024/02/01 06:15:53;;;;;;;7.88;3.15;;;4.90;99.90;;;;;;8459385;28;20469;-74
2024/02/01 06:19:55;;;;;;;6.30;2.00;;;4.90;99.90;;;;;;8447670;28;20052;-74
2024/02/01 06:24:01;;;;;;;7.75;2.10;;;4.80;99.90;;;;;;8448492;28;20053;-73
2024/02/01 06:28:03;;;;;;;8.57;1.73;;;4.80;99.90;;;;;;8445077;28;20122;-74
2024/02/01 06:32:12;;;;;;;10.20;1.52;;;4.80;99.90;;;;;;8457494;28;20065;-74
2024/02/01 06:36:14;;;;;;;7.15;1.50;;;4.70;99.90;;;;;;8457735;27;20399;-73
2024/02/01 06:44:43;;;;;;;6.50;1.15;;;4.70;99.90;;;;;;8454910;28;20082;-73
2024/02/01 06:48:51;;;;;;;6.32;1.63;;;4.60;99.90;;;;;;8457856;28;20079;-73
2024/02/01 06:52:57;;;;;;;7.38;1.52;;;4.60;99.90;;;;;;8456836;28;20444;-73
2024/02/01 06:57:03;;;;;;;4.10;1.00;;;4.60;99.90;;;;;;8455208;28;20059;-73
2024/02/01 07:01:24;;;;;;;4.20;1.05;;;4.50;99.90;;;;;;8460531;28;20048;-73
2024/02/01 07:05:58;;;;;;;5.22;1.10;;;4.50;99.90;;;;;;8465331;27;20039;-74
2024/02/01 07:09:57;;;;;;;3.45;0.93;;;4.30;99.90;;;;;;8457774;28;20063;-73
2024/02/01 07:14:08;;;;;;;8.65;1.17;;;4.20;99.90;;;;;;8462348;28;20414;-74
2024/02/01 07:18:14;;;;;;;3.53;0.95;;;4.10;99.90;;;;;;8452488;27;20043;-73
2024/02/01 07:22:34;;;;;;;11.38;2.03;;;4.10;99.90;;;;;;8451369;28;20047;-73
2024/02/01 07:27:04;;;;;;;3.63;1.00;;;4.10;99.90;;;;;;8456978;27;20114;-73
2024/02/01 08:01:38;;;;;;;1.85;0.70;;;3.70;99.90;;;;;;8442503;28;20075;-74
2024/02/01 08:10:58;;;;;;;5.80;1.20;;;3.70;99.90;;;;;;8460358;28;20092;-74
2024/02/01 08:15:00;;;;;;;11.20;2.00;;;3.70;99.90;;;;;;8455877;28;20047;-74
2024/02/01 08:19:02;;;;;;;7.95;1.40;;;3.80;99.90;;;;;;8459327;28;20448;-73
2024/02/01 08:23:08;;;;;;;13.07;3.55;;;3.90;99.90;;;;;;8448001;28;20448;-73
2024/02/01 08:27:14;;;;;;;9.82;1.23;;;4.10;99.90;;;;;;8443867;27;20055;-74
2024/02/01 08:31:17;;;;;;;5.80;1.23;;;4.20;99.90;;;;;;8457739;27;20043;-74
2024/02/01 08:35:20;;;;;;;7.85;1.63;;;4.20;99.90;;;;;;8446646;28;20503;-74
2024/02/01 08:39:23;;;;;;;10.25;1.58;;;4.30;99.90;;;;;;8464208;28;20060;-73
2024/02/01 08:48:24;;;;;;;10.43;1.70;;;4.50;99.90;;;;;;8458883;27;20055;-73
2024/02/01 08:52:26;;;;;;;9.57;1.73;;;4.60;99.90;;;;;;8449154;28;20048;-73
2024/02/01 08:56:36;;;;;;;8.02;1.27;;;4.70;99.90;;;;;;8462659;27;20048;-73
2024/02/01 09:00:42;;;;;;;6.68;1.52;;;4.80;99.90;;;;;;8457896;28;20047;-73
2024/02/01 09:04:52;;;;;;;7.32;1.48;;;4.90;99.90;;;;;;8451979;28;20562;-73
2024/02/01 09:14:17;;;;;;;7.78;2.08;;;5.10;99.90;;;;;;8461565;28;20034;-73
2024/02/01 09:18:19;;;;;;;8.65;1.50;;;5.30;99.90;;;;;;8457283;28;20048;-73
2024/02/01 09:22:21;;;;;;;10.65;1.92;;;5.40;99.90;;;;;;8467388;27;20510;-73
2024/02/01 09:26:23;;;;;;;13.48;2.45;;;5.60;99.90;;;;;;8450918;28;20067;-73
2024/02/01 09:30:42;;;;;;;9.77;2.25;;;5.90;99.90;;;;;;8461199;28;20051;-73
2024/02/01 09:34:44;;;;;;;12.13;2.20;;;6.20;99.90;;;;;;8450442;28;20051;-73
2024/02/01 09:38:46;;;;;;;9.25;2.03;;;6.50;99.90;;;;;;8462431;28;20471;-73
2024/02/01 09:42:49;;;;;;;12.13;2.50;;;6.80;99.90;;;;;;8457372;27;20480;-73
2024/02/01 09:46:51;;;;;;;15.00;2.28;;;7.00;99.90;;;;;;8461921;28;20054;-74
2024/02/01 09:50:55;;;;;;;10.75;2.35;;;7.20;99.90;;;;;;8461931;28;20048;-73
2024/02/01 09:54:57;;;;;;;11.18;2.38;;;7.40;99.90;;;;;;8447448;28;20134;-73
2024/02/01 09:58:59;;;;;;;11.00;2.45;;;7.50;99.90;;;;;;8457536;28;20040;-73
2024/02/01 10:03:02;;;;;;;11.43;2.20;;;7.50;99.90;;;;;;8450272;28;20043;-73
2024/02/01 10:07:04;;;;;;;8.07;1.70;;;7.60;99.90;;;;;;8453269;27;20086;-73
2024/02/01 10:11:25;;;;;;;15.95;1.75;;;7.80;99.90;;;;;;8459096;28;20084;-74
2024/02/01 10:15:30;;;;;;;15.32;2.78;;;7.80;99.90;;;;;;8457876;28;20477;-73
2024/02/01 10:19:34;;;;;;;15.95;2.58;;;8.00;99.90;;;;;;8455100;28;20083;-73
2024/02/01 10:23:43;;;;;;;8.65;1.77;;;8.10;99.90;;;;;;8462546;28;20051;-73
2024/02/01 10:27:53;;;;;;;16.83;2.78;;;8.30;99.90;;;;;;8418571;28;20078;-74
2024/02/01 10:32:01;;;;;;;12.75;2.63;;;8.50;99.90;;;;;;8449230;28;20078;-73
2024/02/01 10:36:08;;;;;;;21.15;3.50;;;8.70;99.90;;;;;;8440802;28;20051;-73
2024/02/01 10:40:15;;;;;;;11.60;3.00;;;8.90;99.90;;;;;;8458446;28;20083;-73
2024/02/01 10:44:17;;;;;;;16.55;2.85;;;9.30;99.90;;;;;;8455627;28;20039;-73
2024/02/01 10:48:24;;;;;;;11.32;2.47;;;9.60;99.90;;;;;;8457720;27;20050;-73
2024/02/01 10:52:27;;;;;;;16.27;2.63;;;9.90;99.90;;;;;;8457176;28;20061;-73
2024/02/01 10:56:29;;;;;;;10.45;2.85;;;10.00;99.90;;;;;;8458723;28;20052;-73
2024/02/01 11:00:32;;;;;;;11.15;2.47;;;10.00;99.90;;;;;;8458280;28;20051;-73
2024/02/01 11:04:35;;;;;;;11.50;2.60;;;10.00;99.90;;;;;;8454257;28;20047;-73
2024/02/01 11:08:40;;;;;;;13.07;2.40;;;9.90;99.90;;;;;;8436431;28;20430;-73
2024/02/01 11:12:41;;;;;;;12.13;2.90;;;9.80;99.90;;;;;;8452781;28;20116;-73
2024/02/01 11:16:46;;;;;;;12.48;2.67;;;9.70;99.90;;;;;;8431503;28;20059;-73
2024/02/01 11:20:55;;;;;;;9.60;2.28;;;10.00;99.90;;;;;;8454403;28;20680;-73
2024/02/01 11:25:04;;;;;;;9.35;1.65;;;10.70;99.90;;;;;;8454131;28;20231;-73
2024/02/01 11:29:11;;;;;;;13.02;2.30;;;11.20;99.90;;;;;;8450472;28;20096;-74
2024/02/01 11:33:17;;;;;;;13.88;2.72;;;11.40;99.90;;;;;;8445105;28;20052;-73
2024/02/01 11:37:21;;;;;;;13.93;2.53;;;11.50;99.90;;;;;;8448787;28;20044;-73
2024/02/01 11:41:26;;;;;;;14.95;3.10;;;11.70;99.90;;;;;;8444266;28;20613;-73
2024/02/01 11:45:28;;;;;;;12.15;2.40;;;11.90;99.90;;;;;;8447785;28;20055;-73
2024/02/01 11:49:31;;;;;;;13.02;2.55;;;12.20;99.90;;;;;;8443516;28;20039;-74
2024/02/01 11:53:35;;;;;;;17.33;2.53;;;12.20;99.90;;;;;;8446123;28;20113;-73
2024/02/01 11:57:48;;;;;;;15.40;2.78;;;12.20;99.90;;;;;;8450859;28;20530;-73
2024/02/01 12:01:50;;;;;;;12.07;2.47;;;12.40;99.90;;;;;;8453135;28;20044;-73
2024/02/01 12:05:52;;;;;;;15.50;2.33;;;12.90;99.90;;;;;;8437918;28;20137;-73
2024/02/01 12:09:55;;;;;;;11.15;2.13;;;13.30;99.90;;;;;;8452041;28;20118;-73
2024/02/01 12:14:00;;;;;;;11.52;2.20;;;13.80;99.90;;;;;;8431469;28;20104;-74
2024/02/01 12:18:08;;;;;;;11.98;2.08;;;14.40;99.90;;;;;;8440490;28;20048;-74
2024/02/01 12:22:12;;;;;;;13.07;2.70;;;14.60;99.90;;;;;;8451943;28;20043;-74
2024/02/01 12:26:14;;;;;;;9.48;2.15;;;14.70;99.90;;;;;;8431959;28;20047;-74
2024/02/01 12:30:21;;;;;;;8.95;2.22;;;15.10;99.90;;;;;;8423887;28;20056;-74
2024/02/01 12:34:23;;;;;;;6.20;1.63;;;15.20;99.90;;;;;;8422157;28;20146;-73
2024/02/01 12:38:40;;;;;;;12.38;2.80;;;14.70;99.90;;;;;;8423810;28;20549;-73
2024/02/01 12:42:45;;;;;;;12.20;2.42;;;14.10;99.90;;;;;;8424376;28;20043;-74
2024/02/01 12:46:47;;;;;;;11.20;2.35;;;13.50;99.90;;;;;;8409255;28;20044;-73
2024/02/01 12:50:49;;;;;;;14.13;2.30;;;13.00;99.90;;;;;;8408186;28;20071;-74
2024/02/01 12:54:50;;;;;;;12.63;2.78;;;12.80;99.90;;;;;;8422406;28;20063;-72
2024/02/01 12:58:53;;;;;;;11.30;2.00;;;12.70;99.90;;;;;;8425547;28;20042;-73
2024/02/01 13:02:56;;;;;;;13.00;2.05;;;12.60;99.90;;;;;;8418355;28;20491;-73
2024/02/01 13:06:58;;;;;;;10.65;2.20;;;12.40;99.90;;;;;;8426471;28;20044;-73
2024/02/01 13:11:02;;;;;;;13.10;2.15;;;12.10;99.90;;;;;;8410337;28;20044;-73
2024/02/01 13:15:05;;;;;;;9.80;2.17;;;11.70;99.90;;;;;;8410863;28;20483;-72
2024/02/01 13:19:08;;;;;;;11.75;2.08;;;11.40;99.90;;;;;;8428399;28;20051;-72
2024/02/01 13:23:10;;;;;;;12.25;1.90;;;11.10;99.90;;;;;;8430672;28;20055;-73
2024/02/01 13:27:15;;;;;;;10.02;2.00;;;10.90;99.90;;;;;;8409517;28;20062;-73
2024/02/01 13:31:17;;;;;;;7.25;2.38;;;10.80;99.90;;;;;;8441799;28;20052;-74
2024/02/01 13:35:19;;;;;;;11.35;2.03;;;10.70;99.90;;;;;;8434395;28;20134;-73
2024/02/01 13:39:21;;;;;;;8.75;2.38;;;10.60;99.90;;;;;;8430465;28;20048;-73
2024/02/01 13:43:23;;;;;;;7.93;2.63;;;10.50;99.90;;;;;;8410855;28;20105;-73
2024/02/01 13:47:25;;;;;;;11.32;2.30;;;10.40;99.90;;;;;;8428739;28;20044;-73
2024/02/01 13:51:26;;;;;;;12.00;2.30;;;10.40;99.90;;;;;;8425770;28;20131;-73
2024/02/01 13:55:29;;;;;;;10.05;1.83;;;10.50;99.90;;;;;;8407508;27;20074;-73
2024/02/01 13:59:31;;;;;;;10.13;2.28;;;10.60;99.90;;;;;;8428732;28;20047;-73
2024/02/01 14:03:33;;;;;;;13.23;2.03;;;10.90;99.90;;;;;;8430836;28;20108;-73
2024/02/01 14:07:36;;;;;;;10.52;2.10;;;11.10;99.90;;;;;;8402484;28;20143;-73
2024/02/01 14:11:38;;;;;;;12.10;2.42;;;11.30;99.90;;;;;;8425424;28;20062;-72
2024/02/01 14:15:40;;;;;;;9.80;1.98;;;11.60;99.90;;;;;;8419340;28;20101;-73
2024/02/01 14:19:42;;;;;;;7.05;1.40;;;11.80;99.90;;;;;;8408975;28;20052;-73
2024/02/01 14:23:44;;;;;;;15.93;2.90;;;11.90;99.90;;;;;;8408969;28;20040;-73
2024/02/01 14:27:46;;;;;;;13.82;2.58;;;11.70;99.90;;;;;;8423963;27;20462;-73
2024/02/01 14:31:48;;;;;;;13.23;2.20;;;11.60;99.90;;;;;;8415518;28;20054;-74
2024/02/01 14:35:50;;;;;;;9.30;2.00;;;11.50;99.90;;;;;;8424172;28;20044;-73
2024/02/01 14:39:52;;;;;;;9.38;1.83;;;11.20;99.90;;;;;;8430431;28;20051;-73
2024/02/01 14:43:54;;;;;;;11.77;1.83;;;11.00;99.90;;;;;;8415151;28;20048;-73
2024/02/01 14:47:56;;;;;;;10.02;2.03;;;10.80;99.90;;;;;;8415960;28;20051;-73
2024/02/01 14:51:58;;;;;;;10.43;1.50;;;10.60;99.90;;;;;;8422580;28;20094;-73
2024/02/01 14:55:59;;;;;;;10.57;1.90;;;10.70;99.90;;;;;;8400374;28;20514;-73
2024/02/01 15:00:02;;;;;;;8.95;1.38;;;11.00;99.90;;;;;;8420658;28;20145;-73
2024/02/01 15:04:04;;;;;;;9.52;2.45;;;11.40;99.90;;;;;;8423569;28;20039;-73
2024/02/01 15:08:10;;;;;;;9.27;2.08;;;11.60;99.90;;;;;;8420791;27;20134;-73
2024/02/01 15:12:12;;;;;;;7.97;1.40;;;11.80;99.90;;;;;;8422993;28;20044;-73
2024/02/01 15:16:16;;;;;;;10.68;1.80;;;12.10;99.90;;;;;;8426839;28;20048;-73
2024/02/01 15:20:18;;;;;;;9.93;1.65;;;12.30;99.90;;;;;;8403850;28;20055;-73
2024/02/01 15:24:20;;;;;;;7.22;1.60;;;12.50;99.90;;;;;;8424955;28;20495;-73
2024/02/01 15:28:22;;;;;;;10.07;1.70;;;12.60;99.90;;;;;;8408269;28;20059;-73
2024/02/01 15:32:24;;;;;;;9.38;2.00;;;12.30;99.90;;;;;;8426585;28;20458;-72
2024/02/01 15:36:26;;;;;;;9.50;1.63;;;11.80;99.90;;;;;;8398630;28;20051;-72
2024/02/01 15:40:28;;;;;;;8.18;1.83;;;11.30;99.90;;;;;;8404553;28;20071;-72
2024/02/01 15:44:30;;;;;;;9.43;1.60;;;10.90;99.90;;;;;;8419343;28;20373;-72
2024/02/01 15:48:32;;;;;;;15.05;1.90;;;10.60;99.90;;;;;;8423265;28;20335;-72
2024/02/01 15:52:35;;;;;;;7.55;1.80;;;10.30;99.90;;;;;;8421473;28;20448;-72
2024/02/01 15:56:36;;;;;;;5.82;1.40;;;10.00;99.90;;;;;;8420284;28;20132;-72
2024/02/01 16:00:42;;;;;;;11.13;1.90;;;9.80;99.90;;;;;;8422009;28;20090;-72
2024/02/01 16:04:44;;;;;;;10.60;1.75;;;9.60;99.90;;;;;;8423304;28;20429;-72
2024/02/01 16:08:45;;;;;;;10.80;1.77;;;9.40;99.90;;;;;;8418766;28;20067;-72
2024/02/01 16:12:52;;;;;;;9.38;1.55;;;9.20;99.90;;;;;;8422526;28;20394;-72
2024/02/01 16:16:54;;;;;;;8.20;1.70;;;9.10;99.90;;;;;;8421896;28;20085;-72
2024/02/01 16:20:57;;;;;;;9.23;1.40;;;9.00;99.90;;;;;;8405364;28;20557;-72
2024/02/01 16:24:59;;;;;;;7.10;1.77;;;8.90;99.90;;;;;;8414912;28;20052;-72
2024/02/01 16:29:01;;;;;;;7.97;1.38;;;8.80;99.90;;;;;;8423749;28;20488;-72
2024/02/01 16:33:07;;;;;;;7.35;1.85;;;8.70;99.90;;;;;;8404836;28;20458;-72
2024/02/01 16:37:09;;;;;;;12.07;2.03;;;8.60;99.90;;;;;;8417237;28;20052;-72
2024/02/01 16:41:38;;;;;;;8.65;1.60;;;8.60;99.90;;;;;;8409463;27;20047;-72
2024/02/01 16:45:48;;;;;;;13.15;1.90;;;8.50;99.90;;;;;;8426588;27;20411;-72
2024/02/01 16:49:50;;;;;;;12.25;2.10;;;8.50;99.90;;;;;;8431679;28;20043;-72
2024/02/01 16:53:52;;;;;;;9.07;1.90;;;8.40;99.90;;;;;;8430172;28;20056;-72
2024/02/01 16:57:54;;;;;;;9.35;2.05;;;8.30;99.90;;;;;;8413021;28;20127;-72
2024/02/01 17:01:56;;;;;;;10.23;1.70;;;8.20;99.90;;;;;;8424447;28;20052;-72
2024/02/01 17:06:06;;;;;;;9.05;2.17;;;8.10;99.90;;;;;;8417679;28;20487;-72
2024/02/01 17:10:25;;;;;;;10.40;1.73;;;8.10;99.90;;;;;;8417968;28;20055;-72
2024/02/01 17:14:31;;;;;;;12.35;1.90;;;8.00;99.90;;;;;;8429515;27;20050;-72
2024/02/01 17:18:38;;;;;;;13.45;2.15;;;8.00;99.90;;;;;;8428176;27;20051;-72
2024/02/01 17:22:42;;;;;;;6.82;1.98;;;7.90;99.90;;;;;;8428976;27;20101;-72
2024/02/01 17:26:47;;;;;;;13.30;2.65;;;7.80;99.90;;;;;;8428662;27;20061;-72
2024/02/01 17:31:02;;;;;;;8.77;2.00;;;7.70;99.90;;;;;;8411327;28;20040;-72
2024/02/01 17:35:08;;;;;;;9.48;1.80;;;7.60;99.90;;;;;;8417647;28;20044;-72
2024/02/01 17:39:12;;;;;;;9.27;1.87;;;7.50;99.90;;;;;;8418676;28;20047;-72
2024/02/01 17:43:15;;;;;;;6.07;1.85;;;7.40;99.90;;;;;;8412506;27;20068;-71
2024/02/01 17:47:17;;;;;;;8.77;2.45;;;7.40;99.90;;;;;;8422808;28;20580;-72
2024/02/01 17:51:19;;;;;;;12.27;1.88;;;7.30;99.90;;;;;;8411901;28;20063;-72
2024/02/01 17:55:23;;;;;;;10.82;2.15;;;7.30;99.90;;;;;;8426382;27;20063;-72
2024/02/01 17:59:38;;;;;;;10.00;2.05;;;7.30;99.90;;;;;;8425854;27;20559;-72
2024/02/01 18:03:40;;;;;;;8.63;1.92;;;7.20;99.90;;;;;;8425985;28;20838;-72
2024/02/01 18:13:06;;;;;;;12.98;2.65;;;7.00;99.90;;;;;;8429196;27;20038;-72
2024/02/01 18:17:37;;;;;;;11.82;2.15;;;7.00;99.90;;;;;;8426401;28;20172;-72
2024/02/01 18:21:40;;;;;;;6.32;1.55;;;7.00;99.90;;;;;;8401838;27;20043;-72
2024/02/01 18:25:41;;;;;;;6.07;1.80;;;6.90;99.90;;;;;;8416213;28;20483;-72
2024/02/01 18:30:00;;;;;;;7.22;1.65;;;6.80;99.90;;;;;;8428172;27;20143;-72
2024/02/01 18:39:31;;;;;;;5.82;1.58;;;6.40;99.90;;;;;;8428005;27;20034;-72
2024/02/01 18:43:37;;;;;;;8.52;2.13;;;6.30;99.90;;;;;;8427012;28;20577;-72
2024/02/01 18:47:40;;;;;;;7.70;2.42;;;6.20;99.90;;;;;;8428075;27;20036;-72
2024/02/01 18:51:50;;;;;;;12.50;2.72;;;6.10;99.90;;;;;;8408490;27;20523;-71
2024/02/01 18:55:52;;;;;;;9.63;2.35;;;6.10;99.90;;;;;;8374774;28;20057;-72
2024/02/01 18:59:55;;;;;;;9.98;2.20;;;6.10;99.90;;;;;;8363016;28;20416;-72
2024/02/01 19:04:10;;;;;;;7.15;2.30;;;6.00;99.90;;;;;;8362702;28;20049;-72
2024/02/01 19:08:13;;;;;;;9.77;2.05;;;6.00;99.90;;;;;;8364416;28;20037;-72
2024/02/01 19:12:44;;;;;;;7.47;2.60;;;6.00;99.90;;;;;;8361282;28;20048;-72
2024/02/01 19:16:47;;;;;;;8.70;2.30;;;6.00;99.90;;;;;;8362686;28;20045;-72
2024/02/01 19:20:52;;;;;;;10.63;2.30;;;5.90;99.90;;;;;;8363250;28;20052;-72
2024/02/01 19:30:39;;;;;;;10.88;2.22;;;5.90;99.90;;;;;;8358152;28;20300;-72
2024/02/01 19:40:05;;;;;;;9.90;3.05;;;5.90;99.90;;;;;;8357942;28;20047;-72
2024/02/01 19:44:09;;;;;;;7.80;2.90;;;5.90;99.90;;;;;;8362836;28;20045;-72
2024/02/01 19:48:13;;;;;;;14.82;2.90;;;5.80;99.90;;;;;;8359214;28;20056;-72
2024/02/01 19:52:18;;;;;;;12.95;3.33;;;5.80;99.90;;;;;;8357638;28;20396;-72
2024/02/01 19:56:20;;;;;;;10.88;3.10;;;5.70;99.90;;;;;;8398553;28;20052;-72
2024/02/01 20:05:46;;;;;;;7.20;2.38;;;5.60;99.90;;;;;;8384991;28;20503;-72
2024/02/01 20:09:52;;;;;;;14.25;3.20;;;5.50;99.90;;;;;;8403970;28;20044;-72
2024/02/01 20:13:54;;;;;;;10.95;2.30;;;5.40;99.90;;;;;;8393056;28;20048;-72
2024/02/01 20:17:56;;;;;;;9.85;2.65;;;5.40;99.90;;;;;;8391408;28;20066;-72
2024/02/01 20:22:04;;;;;;;10.48;2.85;;;5.40;99.90;;;;;;8404337;28;20159;-72
2024/02/01 20:26:11;;;;;;;8.07;2.53;;;5.40;99.90;;;;;;8402558;28;20801;-72
2024/02/01 20:30:20;;;;;;;10.57;2.42;;;5.40;99.90;;;;;;8395723;28;20052;-72
2024/02/01 20:34:34;;;;;;;9.27;2.78;;;5.40;99.90;;;;;;8398295;28;20048;-72
2024/02/01 20:38:39;;;;;;;12.10;3.00;;;5.40;99.90;;;;;;8388971;28;20086;-72
2024/02/01 20:43:15;;;;;;;10.63;2.80;;;5.40;99.90;;;;;;8385340;28;20075;-72
2024/02/01 20:47:30;;;;;;;11.93;3.63;;;5.40;99.90;;;;;;8383864;28;20046;-72
2024/02/01 20:51:56;;;;;;;9.13;3.30;;;5.40;99.90;;;;;;8385389;28;20048;-72
2024/02/01 20:55:58;;;;;;;14.15;3.05;;;5.40;99.90;;;;;;8340392;28;1119254;-72
2024/02/01 21:00:01;;;;;;;7.57;3.10;;;5.40;99.90;;;;;;8351688;28;20508;-72
2024/02/01 21:04:26;;;;;;;9.32;3.50;;;5.40;99.90;;;;;;8356009;28;20750;-72
2024/02/01 21:08:35;;;;;;;9.65;2.67;;;5.40;99.90;;;;;;8356751;28;20102;-72
2024/02/01 21:12:36;;;;;;;12.10;4.35;;;5.40;99.90;;;;;;8353880;28;20036;-72
2024/02/01 21:16:53;;;;;;;12.35;2.65;;;5.30;99.90;;;;;;8351406;28;20050;-72
2024/02/01 21:21:03;;;;;;;10.05;3.15;;;5.20;99.90;;;;;;8355710;28;20557;-72
2024/02/01 21:25:34;;;;;;;11.15;3.53;;;5.20;99.90;;;;;;8352051;28;20076;-72
2024/02/01 21:29:36;;;;;;;9.85;2.67;;;5.20;99.90;;;;;;8359552;28;20091;-72
2024/02/01 21:33:37;;;;;;;7.90;2.58;;;5.20;99.90;;;;;;8372388;28;20508;-72
2024/02/01 21:37:39;;;;;;;10.10;3.05;;;5.20;99.90;;;;;;8358624;28;20053;-72
2024/02/01 21:41:41;;;;;;;14.60;3.65;;;5.20;99.90;;;;;;8361582;28;20048;-72
2024/02/01 21:45:43;;;;;;;9.48;2.92;;;5.20;99.90;;;;;;8357323;28;20168;-72
2024/02/01 21:49:45;;;;;;;11.98;3.30;;;5.20;99.90;;;;;;8357165;28;20547;-72
2024/02/01 21:53:47;;;;;;;8.40;2.70;;;5.30;99.90;;;;;;8366619;28;20496;-72
2024/02/01 21:57:51;;;;;;;12.05;3.55;;;5.30;99.90;;;;;;8423353;27;20054;-72
2024/02/01 22:01:52;;;;;;;8.95;2.80;;;5.40;99.90;;;;;;8416031;27;20040;-72
2024/02/01 22:05:54;;;;;;;10.25;3.15;;;5.40;99.90;;;;;;8445624;27;20100;-72
2024/02/01 22:09:57;;;;;;;10.73;3.20;;;5.40;99.90;;;;;;8434184;27;20495;-72
2024/02/01 22:13:59;;;;;;;11.07;3.22;;;5.40;99.90;;;;;;8451153;27;20079;-72
2024/02/01 22:18:00;;;;;;;11.82;3.08;;;5.40;99.90;;;;;;8439605;27;20044;-72
2024/02/01 22:22:03;;;;;;;7.53;2.60;;;5.50;99.90;;;;;;8436867;27;20047;-72
2024/02/01 22:26:05;;;;;;;15.82;4.32;;;5.50;99.90;;;;;;8429780;27;20131;-72
2024/02/01 22:30:08;;;;;;;12.05;3.45;;;5.50;99.90;;;;;;8448481;27;20048;-72
2024/02/01 22:34:10;;;;;;;13.27;3.28;;;5.50;99.90;;;;;;8434729;27;20048;-72
2024/02/01 22:38:12;;;;;;;9.77;3.10;;;5.50;99.90;;;;;;8452208;27;20493;-72